createdAt,value
2023-05-14T00:01:01.037Z,97.23
2023-05-14T00:03:30.452Z,97.29
2023-05-14T00:05:58.466Z,97.73
2023-05-14T00:08:26.454Z,96.77
2023-05-14T00:10:54.420Z,97.43
2023-05-14T00:13:22.326Z,97.18
2023-05-14T00:15:50.263Z,95.63
2023-05-14T00:18:18.296Z,96.28
2023-05-14T00:20:47.600Z,95.68
2023-05-14T00:23:15.534Z,95.99
2023-05-14T00:25:43.530Z,96.21
2023-05-14T00:28:11.432Z,95.69
2023-05-14T00:30:39.847Z,96.30
2023-05-14T00:33:08.702Z,97.11
2023-05-14T00:35:36.567Z,97.00
2023-05-14T00:38:05.953Z,97.13
2023-05-14T00:40:34.155Z,97.60
2023-05-14T00:43:02.126Z,98.23
2023-05-14T00:45:30.125Z,98.20
2023-05-14T00:47:58.066Z,97.79
2023-05-14T00:50:26.612Z,97.51
2023-05-14T00:52:55.058Z,98.05
2023-05-14T00:55:24.576Z,98.36
2023-05-14T00:57:54.728Z,98.46
2023-05-14T01:00:22.908Z,98.88
2023-05-14T01:02:51.068Z,98.84
2023-05-14T01:05:19.124Z,99.86
2023-05-14T01:07:56.965Z,99.13
2023-05-14T01:10:33.818Z,99.33
2023-05-14T01:13:09.363Z,99.21
2023-05-14T01:15:39.003Z,99.57
2023-05-14T01:18:09.605Z,98.96
2023-05-14T01:20:38.049Z,99.55
2023-05-14T01:23:07.361Z,99.19
2023-05-14T01:25:35.515Z,99.86
2023-05-14T01:28:10.294Z,99.35
2023-05-14T01:30:41.350Z,100.00
2023-05-14T01:33:12.491Z,100.00
2023-05-14T01:35:41.580Z,100.00
2023-05-14T01:38:13.515Z,100.00
2023-05-14T01:40:42.884Z,99.97
2023-05-14T01:43:11.734Z,99.41
2023-05-14T01:45:39.738Z,100.00
2023-05-14T01:48:07.745Z,100.00
2023-05-14T01:50:35.836Z,100.00
2023-05-14T01:53:03.777Z,100.00
2023-05-14T01:55:33.104Z,100.00
2023-05-14T01:58:01.073Z,100.00
2023-05-14T02:00:28.999Z,100.00
2023-05-14T02:02:56.929Z,100.00
2023-05-14T02:05:24.861Z,100.00
2023-05-14T02:07:52.790Z,100.00
2023-05-14T02:10:20.954Z,100.00
2023-05-14T02:12:50.459Z,99.74
2023-05-14T02:15:18.456Z,100.00
2023-05-14T02:17:46.566Z,100.00
2023-05-14T02:20:14.968Z,100.00
2023-05-14T02:22:45.730Z,100.00
2023-05-14T02:25:13.905Z,100.00
2023-05-14T02:27:41.829Z,98.67
2023-05-14T02:30:12.732Z,95.22
2023-05-14T02:32:41.182Z,93.17
2023-05-14T02:35:10.237Z,94.90
2023-05-14T02:37:38.156Z,93.22
2023-05-14T02:40:07.316Z,90.92
2023-05-14T02:42:35.798Z,93.59
2023-05-14T02:45:03.801Z,86.36
2023-05-14T02:47:33.149Z,86.91
2023-05-14T02:50:01.035Z,84.95
2023-05-14T02:52:28.934Z,84.47
2023-05-14T02:54:56.862Z,84.56
2023-05-14T02:57:24.880Z,82.07
2023-05-14T02:59:52.784Z,81.87
2023-05-14T03:02:21.245Z,82.14
2023-05-14T03:04:50.998Z,82.92
2023-05-14T03:07:18.889Z,82.61
2023-05-14T03:09:46.828Z,84.04
2023-05-14T03:12:14.975Z,83.48
2023-05-14T03:14:42.863Z,83.27
2023-05-14T03:17:12.261Z,82.97
2023-05-14T03:19:40.172Z,82.98
2023-05-14T03:22:09.540Z,83.78
2023-05-14T03:24:40.503Z,82.16
2023-05-14T03:27:08.393Z,81.59
2023-05-14T03:29:36.367Z,82.68
2023-05-14T03:32:04.514Z,83.03
2023-05-14T03:34:32.499Z,83.16
2023-05-14T03:37:00.406Z,82.70
2023-05-14T03:39:29.739Z,82.82
2023-05-14T03:41:59.004Z,83.55
2023-05-14T03:44:27.091Z,82.93
2023-05-14T03:46:55.017Z,82.34
2023-05-14T03:49:23.082Z,81.41
2023-05-14T03:51:50.996Z,79.95
2023-05-14T03:54:18.887Z,81.37
2023-05-14T03:56:48.147Z,82.51
2023-05-14T03:59:16.057Z,81.77
2023-05-14T04:01:45.523Z,80.36
2023-05-14T04:04:13.576Z,83.06
2023-05-14T04:06:41.678Z,83.38
2023-05-14T04:09:10.983Z,82.14
2023-05-14T04:11:38.969Z,82.66
2023-05-14T04:14:08.331Z,84.17
2023-05-14T04:16:36.304Z,83.25
2023-05-14T04:19:05.031Z,83.02
2023-05-14T04:21:33.027Z,82.96
2023-05-14T04:24:01.001Z,82.61
2023-05-14T04:26:28.981Z,82.11
2023-05-14T04:28:56.919Z,82.12
2023-05-14T04:31:26.285Z,80.59
2023-05-14T04:33:54.217Z,80.11
2023-05-14T04:36:22.125Z,78.34
2023-05-14T04:38:50.013Z,76.69
2023-05-14T04:41:17.957Z,73.93
2023-05-14T04:43:46.248Z,74.27
2023-05-14T04:46:14.208Z,72.67
2023-05-14T04:48:43.602Z,72.99
2023-05-14T04:51:11.564Z,72.00
2023-05-14T04:53:39.512Z,70.03
2023-05-14T04:56:07.846Z,70.39
2023-05-14T04:58:35.749Z,70.18
2023-05-14T05:01:05.100Z,70.27
2023-05-14T05:03:33.511Z,71.38
2023-05-14T05:06:02.979Z,70.75
2023-05-14T05:08:30.898Z,70.09
2023-05-14T05:10:58.816Z,69.28
2023-05-14T05:13:26.719Z,69.43
2023-05-14T05:15:54.678Z,69.32
2023-05-14T05:18:22.602Z,64.44
2023-05-14T05:20:50.643Z,64.02
2023-05-14T05:23:20.207Z,63.48
2023-05-14T05:25:48.149Z,64.97
2023-05-14T05:28:16.214Z,64.20
2023-05-14T05:30:45.141Z,63.57
2023-05-14T05:33:13.328Z,64.25
2023-05-14T05:35:41.923Z,65.66
2023-05-14T05:38:09.855Z,67.58
2023-05-14T05:40:39.246Z,68.72
2023-05-14T05:43:07.165Z,56.02
2023-05-14T05:45:35.111Z,53.10
2023-05-14T05:48:03.186Z,50.84
2023-05-14T05:50:31.754Z,48.73
2023-05-14T05:53:00.130Z,48.28
2023-05-14T05:55:28.094Z,47.53
2023-05-14T05:57:57.582Z,46.15
2023-05-14T06:00:25.832Z,43.61
2023-05-14T06:02:54.078Z,44.19
2023-05-14T06:05:22.023Z,45.29
2023-05-14T06:07:49.990Z,44.69
2023-05-14T06:10:18.013Z,43.97
2023-05-14T06:12:45.976Z,42.77
2023-05-14T06:15:16.115Z,44.36
2023-05-14T06:17:44.066Z,41.27
2023-05-14T06:20:12.900Z,42.47
2023-05-14T06:22:40.792Z,41.29
2023-05-14T06:25:09.711Z,41.07
2023-05-14T06:27:37.633Z,45.51
2023-05-14T06:30:06.997Z,39.60
2023-05-14T06:32:36.334Z,38.78
2023-05-14T06:35:04.323Z,39.21
2023-05-14T06:37:32.271Z,38.31
2023-05-14T06:40:00.262Z,38.57
2023-05-14T06:42:28.220Z,39.62
2023-05-14T06:44:56.171Z,38.49
2023-05-14T06:47:24.227Z,38.84
2023-05-14T06:49:53.552Z,38.19
2023-05-14T06:52:21.468Z,38.04
2023-05-14T06:54:49.379Z,38.24
2023-05-14T06:57:17.278Z,38.44
2023-05-14T06:59:45.174Z,38.84
2023-05-14T07:02:13.447Z,38.42
2023-05-14T07:04:41.486Z,38.80
2023-05-14T07:07:15.394Z,39.33
2023-05-14T07:09:43.403Z,38.85
2023-05-14T07:12:11.370Z,39.69
2023-05-14T07:14:39.282Z,39.15
2023-05-14T07:17:07.249Z,39.54
2023-05-14T07:19:35.309Z,39.86
2023-05-14T07:22:03.221Z,39.78
2023-05-14T07:24:32.525Z,38.49
2023-05-14T07:27:01.872Z,38.83
2023-05-14T07:29:30.229Z,38.78
2023-05-14T07:31:58.162Z,38.66
2023-05-14T07:34:26.044Z,39.89
2023-05-14T07:36:54.088Z,42.18
2023-05-14T07:39:22.013Z,37.19
2023-05-14T07:41:52.025Z,39.03
2023-05-14T07:44:19.973Z,40.30
2023-05-14T07:46:48.181Z,36.89
2023-05-14T07:49:16.123Z,36.87
2023-05-14T07:51:44.033Z,35.19
2023-05-14T07:54:12.042Z,35.21
2023-05-14T07:56:39.952Z,36.81
2023-05-14T07:59:09.274Z,36.51
2023-05-14T08:01:39.348Z,34.93
2023-05-14T08:04:07.673Z,34.76
2023-05-14T08:06:35.886Z,33.91
2023-05-14T08:09:05.401Z,35.58
2023-05-14T08:11:33.341Z,34.11
2023-05-14T08:14:01.276Z,32.90
2023-05-14T08:16:30.598Z,33.90
2023-05-14T08:18:58.689Z,33.42
2023-05-14T08:21:28.170Z,33.96
2023-05-14T08:23:56.075Z,33.21
2023-05-14T08:26:23.990Z,33.37
2023-05-14T08:28:51.985Z,36.65
2023-05-14T08:31:19.906Z,34.02
2023-05-14T08:33:49.260Z,35.57
2023-05-14T08:36:17.185Z,35.22
2023-05-14T08:38:45.581Z,35.34
2023-05-14T08:41:14.999Z,35.77
2023-05-14T08:43:47.668Z,33.40
2023-05-14T08:46:18.589Z,32.63
2023-05-14T08:48:55.110Z,32.55
2023-05-14T08:51:23.459Z,34.60
2023-05-14T08:53:51.546Z,32.45
2023-05-14T08:56:21.683Z,33.79
2023-05-14T08:58:49.705Z,32.99
2023-05-14T09:01:18.162Z,32.36
2023-05-14T09:03:47.039Z,33.69
2023-05-14T09:06:16.947Z,32.89
2023-05-14T09:08:45.142Z,33.64
2023-05-14T09:11:13.502Z,33.58
2023-05-14T09:13:41.411Z,35.28
2023-05-14T09:16:09.381Z,34.64
2023-05-14T09:18:38.010Z,34.44
2023-05-14T09:21:06.237Z,34.55
2023-05-14T09:23:35.540Z,34.17
2023-05-14T09:26:06.678Z,35.27
2023-05-14T09:28:34.669Z,34.28
2023-05-14T09:31:03.939Z,32.90
2023-05-14T09:33:31.862Z,34.98
2023-05-14T09:36:00.846Z,36.10
2023-05-14T09:38:31.919Z,33.40
2023-05-14T09:41:01.965Z,33.45
2023-05-14T09:43:29.888Z,33.27
2023-05-14T09:45:57.803Z,33.24
2023-05-14T09:48:26.476Z,33.91
2023-05-14T09:50:54.482Z,33.71
2023-05-14T09:53:22.741Z,35.73
2023-05-14T09:55:50.933Z,34.41
2023-05-14T09:58:20.433Z,34.45
2023-05-14T10:00:48.494Z,34.47
2023-05-14T10:03:19.627Z,35.69
2023-05-14T10:05:50.353Z,34.42
2023-05-14T10:08:23.289Z,33.03
2023-05-14T10:10:53.443Z,35.77
2023-05-14T10:13:25.875Z,33.92
2023-05-14T10:15:58.834Z,33.73
2023-05-14T10:18:32.295Z,34.90
2023-05-14T10:21:06.705Z,35.18
2023-05-14T10:23:37.806Z,34.85
2023-05-14T10:26:06.269Z,34.91
2023-05-14T10:28:36.516Z,34.27
2023-05-14T10:31:04.632Z,33.38
2023-05-14T10:33:47.979Z,34.01
2023-05-14T10:36:15.950Z,33.11
2023-05-14T10:38:43.881Z,33.36
2023-05-14T10:41:15.060Z,35.71
2023-05-14T10:43:45.058Z,34.90
2023-05-14T10:46:15.008Z,34.62
2023-05-14T10:48:44.794Z,35.17
2023-05-14T10:51:13.395Z,33.50
2023-05-14T10:53:43.520Z,34.88
2023-05-14T10:56:12.917Z,34.39
2023-05-14T10:58:43.200Z,33.68
2023-05-14T11:01:13.947Z,35.19
2023-05-14T11:03:44.439Z,34.79
2023-05-14T11:06:13.814Z,34.20
2023-05-14T11:08:41.905Z,33.83
2023-05-14T11:11:10.887Z,33.73
2023-05-14T11:13:39.562Z,33.68
2023-05-14T11:16:21.914Z,35.20
2023-05-14T11:19:01.949Z,35.36
2023-05-14T11:21:30.124Z,34.31
2023-05-14T11:23:58.310Z,35.53
2023-05-14T11:26:26.276Z,37.30
2023-05-14T11:28:54.287Z,38.43
2023-05-14T11:31:24.299Z,36.64
2023-05-14T11:33:53.385Z,36.06
2023-05-14T11:36:23.183Z,35.38
2023-05-14T11:38:52.545Z,36.73
2023-05-14T11:41:23.243Z,35.43
2023-05-14T11:43:51.598Z,36.08
2023-05-14T11:46:19.803Z,36.49
2023-05-14T11:48:48.241Z,34.93
2023-05-14T11:51:16.198Z,35.97
2023-05-14T11:53:46.679Z,34.59
2023-05-14T11:56:14.713Z,35.27
2023-05-14T11:58:42.733Z,34.92
2023-05-14T12:01:15.154Z,35.89
2023-05-14T12:03:43.355Z,34.99
2023-05-14T12:06:11.387Z,35.16
2023-05-14T12:08:39.300Z,34.20
2023-05-14T12:11:10.390Z,34.13
2023-05-14T12:13:38.345Z,33.72
2023-05-14T12:16:06.671Z,34.95
2023-05-14T12:18:34.995Z,35.33
2023-05-14T12:21:08.376Z,35.32
2023-05-14T12:23:36.689Z,34.98
2023-05-14T12:26:06.677Z,35.54
2023-05-14T12:28:38.490Z,35.93
2023-05-14T12:31:06.924Z,34.20
2023-05-14T12:33:35.005Z,34.53
2023-05-14T12:36:19.738Z,36.05
2023-05-14T12:38:49.564Z,35.69
2023-05-14T12:41:17.753Z,34.56
2023-05-14T12:43:50.023Z,35.34
2023-05-14T12:46:18.226Z,37.20
2023-05-14T12:48:46.479Z,38.72
2023-05-14T12:51:14.655Z,35.61
2023-05-14T12:53:42.598Z,35.71
2023-05-14T12:56:10.811Z,38.00
2023-05-14T12:58:38.945Z,37.85
2023-05-14T13:01:08.899Z,36.71
2023-05-14T13:03:36.880Z,36.31
2023-05-14T13:06:05.126Z,36.24
2023-05-14T13:08:33.074Z,36.28
2023-05-14T13:11:00.967Z,36.62
2023-05-14T13:13:29.031Z,34.59
2023-05-14T13:15:56.951Z,37.70
2023-05-14T13:18:27.069Z,36.80
2023-05-14T13:20:55.491Z,36.96
2023-05-14T13:23:23.799Z,38.21
2023-05-14T13:25:51.877Z,36.22
2023-05-14T13:28:19.978Z,34.57
2023-05-14T13:31:07.255Z,34.62
2023-05-14T13:33:38.827Z,35.97
2023-05-14T13:36:07.335Z,35.13
2023-05-14T13:38:35.512Z,35.22
2023-05-14T13:41:03.878Z,35.51
2023-05-14T13:43:32.110Z,35.41
2023-05-14T13:46:00.448Z,35.48
2023-05-14T13:48:29.014Z,34.52
2023-05-14T13:50:58.311Z,35.13
2023-05-14T13:53:26.921Z,35.73
2023-05-14T13:55:58.150Z,35.23
2023-05-14T13:58:26.595Z,35.05
2023-05-14T14:00:55.051Z,34.67
2023-05-14T14:03:23.003Z,35.36
2023-05-14T14:05:52.154Z,36.73
2023-05-14T14:08:24.288Z,35.51
2023-05-14T14:10:54.657Z,35.75
2023-05-14T14:13:23.439Z,34.96
2023-05-14T14:15:51.450Z,36.35
2023-05-14T14:18:19.437Z,36.83
2023-05-14T14:20:47.352Z,36.05
2023-05-14T14:23:15.294Z,37.23
2023-05-14T14:25:44.768Z,36.86
2023-05-14T14:28:12.673Z,35.94
2023-05-14T14:30:41.117Z,34.92
2023-05-14T14:33:09.072Z,36.16
2023-05-14T14:35:37.501Z,38.07
2023-05-14T14:38:05.489Z,37.15
2023-05-14T14:40:34.411Z,36.91
2023-05-14T14:43:03.819Z,35.80
2023-05-14T14:45:31.995Z,37.03
2023-05-14T14:48:26.246Z,37.54
2023-05-14T14:50:53.984Z,36.86
2023-05-14T14:53:22.394Z,37.25
2023-05-14T14:55:50.423Z,35.81
2023-05-14T14:58:21.999Z,36.17
2023-05-14T15:00:52.750Z,36.03
2023-05-14T15:03:21.361Z,36.33
2023-05-14T15:05:49.999Z,36.82
2023-05-14T15:08:17.915Z,36.83
2023-05-14T15:10:46.443Z,35.79
2023-05-14T15:13:14.528Z,37.32
2023-05-14T15:15:43.814Z,36.56
2023-05-14T15:18:11.985Z,36.06
2023-05-14T15:20:39.978Z,37.22
2023-05-14T15:23:07.943Z,36.64
2023-05-14T15:25:35.914Z,37.19
2023-05-14T15:28:04.074Z,36.62
2023-05-14T15:30:31.990Z,36.47
2023-05-14T15:33:01.480Z,37.88
2023-05-14T15:35:29.437Z,37.37
2023-05-14T15:37:58.141Z,37.47
2023-05-14T15:40:26.317Z,36.78
2023-05-14T15:42:54.418Z,36.95
2023-05-14T15:45:22.482Z,36.32
2023-05-14T15:47:50.858Z,37.31
2023-05-14T15:50:20.518Z,36.75
2023-05-14T15:52:48.922Z,37.58
2023-05-14T15:55:16.862Z,37.01
2023-05-14T15:57:45.095Z,36.87
2023-05-14T16:00:14.500Z,38.08
2023-05-14T16:02:42.621Z,37.55
2023-05-14T16:05:11.016Z,37.95
2023-05-14T16:07:40.333Z,38.08
2023-05-14T16:10:09.191Z,37.93
2023-05-14T16:12:37.126Z,38.66
2023-05-14T16:15:05.563Z,37.40
2023-05-14T16:17:33.878Z,38.95
2023-05-14T16:20:02.132Z,38.30
2023-05-14T16:22:32.006Z,38.86
2023-05-14T16:25:03.420Z,38.46
2023-05-14T16:27:31.982Z,39.22
2023-05-14T16:29:59.895Z,38.98
2023-05-14T16:32:28.053Z,38.30
2023-05-14T16:34:56.572Z,38.52
2023-05-14T16:37:24.657Z,38.42
2023-05-14T16:39:52.696Z,38.26
2023-05-14T16:42:21.972Z,38.68
2023-05-14T16:44:49.896Z,37.57
2023-05-14T16:47:17.848Z,37.88
2023-05-14T16:49:45.746Z,37.97
2023-05-14T16:52:13.662Z,38.26
2023-05-14T16:54:41.606Z,38.19
2023-05-14T16:57:09.614Z,37.97
2023-05-14T16:59:38.914Z,37.36
2023-05-14T17:02:07.994Z,37.67
2023-05-14T17:04:38.748Z,37.88
2023-05-14T17:07:06.965Z,37.30
2023-05-14T17:09:34.924Z,37.17
2023-05-14T17:12:02.900Z,37.80
2023-05-14T17:14:31.722Z,37.74
2023-05-14T17:17:01.081Z,38.18
2023-05-14T17:19:28.992Z,37.90
2023-05-14T17:21:56.972Z,38.60
2023-05-14T17:24:24.888Z,37.91
2023-05-14T17:26:52.875Z,37.96
2023-05-14T17:29:20.803Z,37.69
2023-05-14T17:31:49.334Z,38.87
2023-05-14T17:34:18.815Z,38.22
2023-05-14T17:36:46.786Z,39.11
2023-05-14T17:39:14.688Z,38.83
2023-05-14T17:41:42.901Z,40.98
2023-05-14T17:44:12.875Z,39.15
2023-05-14T17:46:41.872Z,39.29
2023-05-14T17:49:09.896Z,38.99
2023-05-14T17:51:39.248Z,39.07
2023-05-14T17:54:07.204Z,41.48
2023-05-14T17:56:35.151Z,40.39
2023-05-14T17:59:03.095Z,41.42
2023-05-14T18:01:31.282Z,41.09
2023-05-14T18:03:59.373Z,40.85
2023-05-14T18:06:27.518Z,42.52
2023-05-14T18:08:56.919Z,41.72
2023-05-14T18:11:24.900Z,41.34
2023-05-14T18:13:52.859Z,41.27
2023-05-14T18:16:20.845Z,41.51
2023-05-14T18:18:48.821Z,42.18
2023-05-14T18:21:16.785Z,42.29
2023-05-14T18:23:44.776Z,42.00
2023-05-14T18:26:14.542Z,42.25
2023-05-14T18:28:42.570Z,41.71
2023-05-14T18:31:10.585Z,42.44
2023-05-14T18:33:38.618Z,43.25
2023-05-14T18:36:06.951Z,43.42
2023-05-14T18:38:34.954Z,44.80
2023-05-14T18:41:03.043Z,43.98
2023-05-14T18:43:32.310Z,45.17
2023-05-14T18:46:00.360Z,45.67
2023-05-14T18:48:28.392Z,45.96
2023-05-14T18:50:56.271Z,46.77
2023-05-14T18:53:24.355Z,46.91
2023-05-14T18:55:52.332Z,47.40
2023-05-14T18:58:20.246Z,48.45
2023-05-14T19:00:49.563Z,49.93
2023-05-14T19:03:17.627Z,51.30
2023-05-14T19:05:45.691Z,50.68
2023-05-14T19:08:13.609Z,53.72
2023-05-14T19:10:41.511Z,53.19
2023-05-14T19:13:09.444Z,52.72
2023-05-14T19:15:38.191Z,52.56
2023-05-14T19:18:07.728Z,51.79
2023-05-14T19:20:35.758Z,52.46
2023-05-14T19:23:03.687Z,52.22
2023-05-14T19:25:31.776Z,54.13
2023-05-14T19:28:01.631Z,55.40
2023-05-14T19:30:29.598Z,55.34
2023-05-14T19:32:57.540Z,54.58
2023-05-14T19:35:27.026Z,54.38
2023-05-14T19:37:54.990Z,55.48
2023-05-14T19:40:22.947Z,57.02
2023-05-14T19:42:50.873Z,57.26
2023-05-14T19:45:18.774Z,57.93
2023-05-14T19:47:46.720Z,57.67
2023-05-14T19:50:14.768Z,57.12
2023-05-14T19:52:44.082Z,56.90
2023-05-14T19:55:11.992Z,58.15
2023-05-14T19:57:40.039Z,57.88
2023-05-14T20:00:10.578Z,58.09
2023-05-14T20:02:40.898Z,57.63
2023-05-14T20:05:10.642Z,57.41
2023-05-14T20:07:40.344Z,57.90
2023-05-14T20:10:11.002Z,59.68
2023-05-14T20:12:38.896Z,60.39
2023-05-14T20:15:07.828Z,61.42
2023-05-14T20:17:35.790Z,62.74
2023-05-14T20:20:04.922Z,62.36
2023-05-14T20:22:32.795Z,61.28
2023-05-14T20:25:00.718Z,61.51
2023-05-14T20:27:30.046Z,62.79
2023-05-14T20:29:57.964Z,63.72
2023-05-14T20:32:26.180Z,64.49
2023-05-14T20:34:54.164Z,64.74
2023-05-14T20:37:22.113Z,63.88
2023-05-14T20:39:50.046Z,64.33
2023-05-14T20:42:18.003Z,65.43
2023-05-14T20:44:48.458Z,66.31
2023-05-14T20:47:19.030Z,66.41
2023-05-14T20:49:47.033Z,65.45
2023-05-14T20:52:15.336Z,65.40
2023-05-14T20:54:43.768Z,64.81
2023-05-14T20:57:12.347Z,64.08
2023-05-14T20:59:40.335Z,63.52
2023-05-14T21:02:10.130Z,64.03
2023-05-14T21:04:38.701Z,64.96
2023-05-14T21:07:07.195Z,66.14
2023-05-14T21:09:35.143Z,64.55
2023-05-14T21:12:03.085Z,64.14
2023-05-14T21:14:31.092Z,63.33
2023-05-14T21:16:59.040Z,62.82
2023-05-14T21:19:28.311Z,63.72
2023-05-14T21:21:56.247Z,63.50
2023-05-14T21:24:24.177Z,66.96
2023-05-14T21:26:53.676Z,65.04
2023-05-14T21:29:21.756Z,63.98
2023-05-14T21:31:50.275Z,63.23
2023-05-14T21:34:18.269Z,64.74
2023-05-14T21:36:48.224Z,64.59
2023-05-14T21:39:16.183Z,64.36
2023-05-14T21:41:44.075Z,64.69
2023-05-14T21:44:11.989Z,64.00
2023-05-14T21:46:39.993Z,64.28
2023-05-14T21:49:07.906Z,65.25
2023-05-14T21:51:36.003Z,65.49
2023-05-14T21:54:05.587Z,65.55
2023-05-14T21:56:33.512Z,66.06
2023-05-14T21:59:01.462Z,67.00
2023-05-14T22:01:29.422Z,68.14
2023-05-14T22:03:57.967Z,68.95
2023-05-14T22:06:26.407Z,69.33
2023-05-14T22:08:54.293Z,68.95
2023-05-14T22:11:23.577Z,69.04
2023-05-14T22:13:51.497Z,68.75
2023-05-14T22:16:19.571Z,69.16
2023-05-14T22:18:48.111Z,70.58
2023-05-14T22:21:16.053Z,70.98
2023-05-14T22:23:44.404Z,70.42
2023-05-14T22:26:12.434Z,71.76
2023-05-14T22:28:43.135Z,71.57
2023-05-14T22:31:11.411Z,71.80
2023-05-14T22:33:39.333Z,72.72
2023-05-14T22:36:08.120Z,73.60
2023-05-14T22:38:36.031Z,72.47
2023-05-14T22:41:03.945Z,73.34
2023-05-14T22:43:31.844Z,74.23
2023-05-14T22:46:01.332Z,74.32
2023-05-14T22:48:29.275Z,74.06
2023-05-14T22:50:57.219Z,73.97
2023-05-14T22:53:25.479Z,75.35
2023-05-14T22:55:53.599Z,75.85
2023-05-14T22:58:21.538Z,76.41
2023-05-14T23:00:49.455Z,76.43
2023-05-14T23:03:18.776Z,77.58
2023-05-14T23:05:46.724Z,78.56
2023-05-14T23:08:14.686Z,79.91
2023-05-14T23:10:42.616Z,79.40
2023-05-14T23:13:10.648Z,80.35
2023-05-14T23:15:38.824Z,80.57
2023-05-14T23:18:07.062Z,80.95
2023-05-14T23:20:36.416Z,80.96
2023-05-14T23:23:04.482Z,81.35
2023-05-14T23:25:33.305Z,82.41
2023-05-14T23:28:01.407Z,82.64
2023-05-14T23:30:29.379Z,82.29
2023-05-14T23:32:57.343Z,83.80
2023-05-14T23:35:25.996Z,85.98
2023-05-14T23:37:55.615Z,84.78
2023-05-14T23:40:23.564Z,84.95
2023-05-14T23:42:51.755Z,84.92
2023-05-14T23:45:19.894Z,83.87
2023-05-14T23:47:48.143Z,83.72
2023-05-14T23:50:16.163Z,83.44
2023-05-14T23:52:44.104Z,83.63
2023-05-14T23:55:13.668Z,83.05
2023-05-14T23:57:42.119Z,83.85
